Time;durP1;ratioP1;P1;durP2;ratioP2;P2;SDS_P1;SDS_P2;PMS_P1;PMS_P2;Temp;Humidity;BMP_temperature;BMP_pressure;BME280_temperature;BME280_humidity;BME280_pressure;Samples;Min_cycle;Max_cycle;Signal;HPM_P1;HPM_P2
2023/05/08 00:01:59;;;;;;;8.33;5.87;;;12.20;99.90;;;;;;4954504;28;20299;-86
2023/05/08 00:04:24;;;;;;;10.93;7.50;;;12.10;99.90;;;;;;4970828;28;20689;-86
2023/05/08 00:06:51;;;;;;;6.50;4.80;;;12.00;99.90;;;;;;4954661;28;20248;-86
2023/05/08 00:09:18;;;;;;;9.10;5.43;;;11.90;99.90;;;;;;4971248;28;20177;-86
2023/05/08 00:11:44;;;;;;;10.83;5.87;;;11.80;99.90;;;;;;4970356;28;20224;-85
2023/05/08 00:14:10;;;;;;;9.40;5.57;;;11.80;99.90;;;;;;4970444;28;20225;-85
2023/05/08 00:16:36;;;;;;;7.97;6.00;;;11.70;99.90;;;;;;4970276;28;20306;-86
2023/05/08 00:19:02;;;;;;;10.00;5.83;;;11.60;99.90;;;;;;4970384;28;20534;-85
2023/05/08 00:21:28;;;;;;;8.10;5.23;;;11.60;99.90;;;;;;4972450;28;20280;-86
2023/05/08 00:23:58;;;;;;;7.10;5.50;;;11.50;99.90;;;;;;4954281;28;20311;-86
2023/05/08 00:26:24;;;;;;;9.37;6.80;;;11.50;99.90;;;;;;4954826;28;20303;-86
2023/05/08 00:28:50;;;;;;;6.30;4.87;;;11.50;99.90;;;;;;4970177;28;20686;-86
2023/05/08 00:31:15;;;;;;;6.60;5.70;;;11.50;99.90;;;;;;4954215;28;20208;-85
2023/05/08 00:33:41;;;;;;;9.60;6.67;;;11.40;99.90;;;;;;4954822;28;20180;-85
2023/05/08 00:36:07;;;;;;;7.60;4.30;;;11.40;99.90;;;;;;4969811;28;20228;-85
2023/05/08 00:38:34;;;;;;;8.00;5.67;;;11.30;99.90;;;;;;4970316;28;20686;-85
2023/05/08 00:41:00;;;;;;;8.27;5.00;;;11.20;99.90;;;;;;4970250;28;20226;-86
2023/05/08 00:43:29;;;;;;;7.27;5.77;;;11.20;99.90;;;;;;4954038;28;20220;-85
2023/05/08 00:45:57;;;;;;;7.17;4.80;;;11.00;99.90;;;;;;4954148;28;20638;-86
2023/05/08 00:48:24;;;;;;;10.33;5.47;;;11.00;99.90;;;;;;4970649;28;20350;-86
2023/05/08 00:50:52;;;;;;;7.93;4.50;;;11.00;99.90;;;;;;4953440;28;20245;-85
2023/05/08 00:53:21;;;;;;;10.67;6.20;;;11.00;99.90;;;;;;4954098;28;20319;-85
2023/05/08 00:55:48;;;;;;;7.57;5.87;;;11.10;99.90;;;;;;4970872;28;20239;-85
2023/05/08 00:58:14;;;;;;;10.63;7.07;;;11.10;99.90;;;;;;4970860;28;20221;-85
2023/05/08 01:00:45;;;;;;;12.90;7.10;;;11.10;99.90;;;;;;4970315;28;20308;-86
2023/05/08 01:03:12;;;;;;;10.10;6.13;;;11.00;99.90;;;;;;4970539;28;20217;-86
2023/05/08 01:05:40;;;;;;;8.83;5.93;;;11.00;99.90;;;;;;4953995;28;20302;-85
2023/05/08 01:08:06;;;;;;;10.53;5.77;;;11.00;99.90;;;;;;4969672;28;20217;-85
2023/05/08 01:10:44;;;;;;;8.67;6.00;;;11.00;99.90;;;;;;4937593;28;20669;-85
2023/05/08 01:13:53;;;;;;;6.67;5.57;;;10.90;99.90;;;;;;4970459;28;20243;-85
2023/05/08 01:16:32;;;;;;;7.50;5.70;;;10.80;99.90;;;;;;4970833;28;20232;-86
2023/05/08 01:19:07;;;;;;;7.37;4.13;;;10.80;99.90;;;;;;4969529;28;20169;-86
2023/05/08 01:21:42;;;;;;;6.60;5.17;;;10.80;99.90;;;;;;4970211;28;20704;-86
2023/05/08 01:24:32;;;;;;;7.20;5.03;;;10.80;99.90;;;;;;4969350;28;20228;-86
2023/05/08 01:27:23;;;;;;;10.37;5.33;;;10.80;99.90;;;;;;4969479;28;20231;-86
2023/05/08 01:29:54;;;;;;;9.23;6.30;;;10.80;99.90;;;;;;4970513;28;20295;-86
2023/05/08 01:32:32;;;;;;;5.93;4.70;;;10.90;99.90;;;;;;4969153;28;20465;-85
2023/05/08 01:35:11;;;;;;;4.93;4.23;;;10.80;99.90;;;;;;4968904;28;20551;-85
2023/05/08 01:37:56;;;;;;;7.17;4.87;;;10.90;99.90;;;;;;4969015;28;20228;-85
2023/05/08 01:40:39;;;;;;;10.77;5.57;;;10.90;99.90;;;;;;4970218;28;20223;-85
2023/05/08 01:43:19;;;;;;;9.43;6.10;;;10.90;99.90;;;;;;4968925;28;20208;-85
2023/05/08 01:45:47;;;;;;;9.13;5.10;;;10.80;99.90;;;;;;4970424;28;20169;-86
2023/05/08 01:48:23;;;;;;;7.93;5.33;;;10.70;99.90;;;;;;4969067;28;20258;-85
2023/05/08 01:50:56;;;;;;;6.17;4.37;;;10.70;99.90;;;;;;4968807;28;20244;-85
2023/05/08 01:53:26;;;;;;;7.03;5.60;;;10.60;99.90;;;;;;4968798;28;20280;-85
2023/05/08 01:55:56;;;;;;;6.73;4.40;;;10.60;99.90;;;;;;4969927;28;20266;-85
2023/05/08 01:58:24;;;;;;;6.70;5.27;;;10.60;99.90;;;;;;4968498;28;20806;-85
2023/05/08 02:00:51;;;;;;;7.93;4.23;;;10.60;99.90;;;;;;4952466;28;20195;-85
2023/05/08 02:03:19;;;;;;;8.67;6.07;;;10.70;99.90;;;;;;4936648;28;20181;-85
2023/05/08 02:05:50;;;;;;;7.13;5.07;;;10.60;99.90;;;;;;4969658;28;20255;-85
2023/05/08 02:08:18;;;;;;;9.73;6.00;;;10.60;99.90;;;;;;4968210;28;20430;-85
2023/05/08 02:10:47;;;;;;;10.73;6.33;;;10.60;99.90;;;;;;4952134;28;20356;-85
2023/05/08 02:13:17;;;;;;;8.03;5.77;;;10.70;99.90;;;;;;4968026;28;20217;-85
2023/05/08 02:15:47;;;;;;;9.47;5.53;;;10.70;99.90;;;;;;4969006;28;20268;-85
2023/05/08 02:18:15;;;;;;;11.50;6.80;;;10.70;99.90;;;;;;4969604;28;20224;-85
2023/05/08 02:20:41;;;;;;;10.27;6.07;;;10.70;99.90;;;;;;4968431;28;20224;-86
2023/05/08 02:23:08;;;;;;;9.23;5.90;;;10.70;99.90;;;;;;4952559;28;20772;-86
2023/05/08 02:25:35;;;;;;;5.57;4.20;;;10.70;99.90;;;;;;4936726;28;20267;-86
2023/05/08 02:28:01;;;;;;;6.13;4.13;;;10.70;99.90;;;;;;4952301;28;20193;-86
2023/05/08 02:30:28;;;;;;;7.90;4.90;;;10.60;99.90;;;;;;4968903;28;20181;-85
2023/05/08 02:32:55;;;;;;;7.73;5.30;;;10.50;99.90;;;;;;4968350;28;20440;-86
2023/05/08 02:35:23;;;;;;;8.47;4.90;;;10.40;99.90;;;;;;4968295;28;20233;-85
2023/05/08 02:37:55;;;;;;;5.50;5.00;;;10.30;99.90;;;;;;4936095;28;20303;-85
2023/05/08 02:40:26;;;;;;;5.73;4.97;;;10.30;99.90;;;;;;4968064;28;20275;-86
2023/05/08 02:42:53;;;;;;;6.60;4.93;;;10.20;99.90;;;;;;4968179;28;20272;-86
2023/05/08 02:45:19;;;;;;;6.37;5.10;;;10.20;99.90;;;;;;4968851;28;20181;-86
2023/05/08 02:48:03;;;;;;;9.90;5.27;;;10.20;99.90;;;;;;4968107;28;20316;-85
2023/05/08 02:50:57;;;;;;;6.77;4.43;;;10.20;99.90;;;;;;4967809;28;20326;-86
2023/05/08 02:53:52;;;;;;;8.07;4.87;;;10.30;99.90;;;;;;4964091;28;20224;-86
2023/05/08 02:56:25;;;;;;;8.27;5.17;;;10.30;99.90;;;;;;4968124;28;20612;-86
2023/05/08 02:59:12;;;;;;;6.17;5.00;;;10.20;99.90;;;;;;4967719;28;20225;-86
2023/05/08 03:02:08;;;;;;;7.60;5.47;;;10.20;99.90;;;;;;4967798;28;20371;-86
2023/05/08 03:04:39;;;;;;;10.40;5.10;;;10.20;99.90;;;;;;4969047;28;20671;-85
2023/05/08 03:07:05;;;;;;;5.90;5.03;;;10.20;99.90;;;;;;4967868;28;20173;-86
2023/05/08 03:09:40;;;;;;;8.53;6.10;;;10.20;99.90;;;;;;4968344;28;20188;-86
2023/05/08 03:12:11;;;;;;;6.37;4.93;;;10.20;99.90;;;;;;4967827;28;20658;-86
2023/05/08 03:14:45;;;;;;;6.90;5.27;;;10.20;99.90;;;;;;4970635;28;20249;-85
2023/05/08 03:17:15;;;;;;;11.20;7.37;;;10.20;99.90;;;;;;4971592;28;20251;-85
2023/05/08 03:19:46;;;;;;;7.40;5.33;;;10.20;99.90;;;;;;4971530;28;20212;-86
2023/05/08 03:22:15;;;;;;;9.50;5.47;;;10.20;99.90;;;;;;4972608;28;20459;-86
2023/05/08 03:24:43;;;;;;;5.73;5.03;;;10.00;99.90;;;;;;4972180;28;20276;-85
2023/05/08 03:27:09;;;;;;;8.20;4.67;;;9.90;99.90;;;;;;4971541;28;20720;-85
2023/05/08 03:29:38;;;;;;;7.53;5.03;;;9.80;99.90;;;;;;4971405;28;20312;-85
2023/05/08 03:32:06;;;;;;;8.43;5.23;;;9.70;99.90;;;;;;4971609;28;20236;-85
2023/05/08 03:34:32;;;;;;;7.00;5.07;;;9.70;99.90;;;;;;4955327;28;20262;-86
2023/05/08 03:36:58;;;;;;;6.67;6.00;;;9.60;99.90;;;;;;4972530;28;20208;-85
2023/05/08 03:39:25;;;;;;;7.40;4.47;;;9.50;99.90;;;;;;4939867;28;20435;-86
2023/05/08 03:41:51;;;;;;;10.33;4.63;;;9.40;99.90;;;;;;4970868;28;20227;-86
2023/05/08 03:44:17;;;;;;;7.77;5.27;;;9.50;99.90;;;;;;4938864;28;20213;-85
2023/05/08 03:46:45;;;;;;;6.10;3.97;;;9.50;99.90;;;;;;4955071;28;20227;-85
2023/05/08 03:49:13;;;;;;;6.37;5.13;;;9.60;99.90;;;;;;4970186;28;20240;-85
2023/05/08 03:51:39;;;;;;;7.83;4.67;;;9.60;99.90;;;;;;4955685;28;20193;-86
2023/05/08 03:54:05;;;;;;;9.07;6.47;;;9.70;99.90;;;;;;4970997;28;20311;-85
2023/05/08 03:56:32;;;;;;;9.40;6.77;;;9.70;99.90;;;;;;4970815;28;20738;-85
2023/05/08 03:59:26;;;;;;;8.13;7.23;;;9.70;99.90;;;;;;4954919;28;20220;-85
2023/05/08 04:02:08;;;;;;;10.13;6.50;;;9.70;99.90;;;;;;4970767;28;20220;-85
2023/05/08 04:04:39;;;;;;;7.50;5.50;;;9.70;99.90;;;;;;4971983;28;20296;-85
2023/05/08 04:07:12;;;;;;;5.30;4.33;;;9.60;99.90;;;;;;4970940;28;20252;-86
2023/05/08 04:09:48;;;;;;;7.50;5.37;;;9.60;99.90;;;;;;4972619;28;20285;-86
2023/05/08 04:12:25;;;;;;;8.93;5.43;;;9.50;99.90;;;;;;4971133;28;20212;-85
2023/05/08 04:15:00;;;;;;;8.17;6.67;;;9.50;99.90;;;;;;4970900;28;20229;-85
2023/05/08 04:17:46;;;;;;;5.87;5.23;;;9.40;99.90;;;;;;4971700;28;20302;-85
2023/05/08 04:20:16;;;;;;;9.20;5.17;;;9.40;99.90;;;;;;4970505;28;20686;-86
2023/05/08 04:22:44;;;;;;;5.97;5.27;;;9.40;99.90;;;;;;4970362;28;20225;-86
2023/05/08 04:25:11;;;;;;;7.73;6.10;;;9.50;99.90;;;;;;4970311;28;20220;-86
2023/05/08 04:27:37;;;;;;;8.53;5.03;;;9.50;99.90;;;;;;4971752;28;20193;-85
2023/05/08 04:30:03;;;;;;;7.77;5.73;;;9.60;99.90;;;;;;4971228;28;20299;-85
2023/05/08 04:32:30;;;;;;;7.10;5.17;;;9.60;99.90;;;;;;4938202;28;20261;-85
2023/05/08 04:34:58;;;;;;;5.70;4.13;;;9.70;99.90;;;;;;4970135;28;20216;-85
2023/05/08 04:37:30;;;;;;;7.17;5.77;;;9.70;99.90;;;;;;4953697;28;20295;-85
2023/05/08 04:39:59;;;;;;;12.57;6.00;;;9.80;99.90;;;;;;4969855;28;20165;-85
2023/05/08 04:42:26;;;;;;;8.47;5.77;;;9.80;99.90;;;;;;4972030;28;20246;-85
2023/05/08 04:44:53;;;;;;;7.43;5.27;;;9.80;99.90;;;;;;4971296;28;20217;-85
2023/05/08 04:47:19;;;;;;;7.23;5.23;;;9.90;99.90;;;;;;4971017;28;20722;-85
2023/05/08 04:49:45;;;;;;;11.73;7.83;;;10.00;99.90;;;;;;4953915;28;20232;-86
2023/05/08 04:52:11;;;;;;;10.03;7.00;;;10.10;99.90;;;;;;4969878;28;20228;-85
2023/05/08 04:54:37;;;;;;;8.70;7.40;;;10.10;99.90;;;;;;4954184;28;20185;-85
2023/05/08 04:57:03;;;;;;;7.87;5.00;;;10.20;99.90;;;;;;4969827;28;20240;-85
2023/05/08 04:59:29;;;;;;;7.97;5.23;;;10.30;99.90;;;;;;4953836;28;20810;-86
2023/05/08 05:01:55;;;;;;;7.60;6.63;;;10.40;99.90;;;;;;4971262;28;20216;-85
2023/05/08 05:04:21;;;;;;;10.17;6.00;;;10.50;99.90;;;;;;4970888;28;20224;-86
2023/05/08 05:06:47;;;;;;;7.03;4.70;;;10.60;99.90;;;;;;4970927;28;20185;-85
2023/05/08 05:09:13;;;;;;;9.23;6.57;;;10.70;99.90;;;;;;4938191;28;20618;-85
2023/05/08 05:11:39;;;;;;;7.23;5.37;;;10.80;99.90;;;;;;4970090;28;20276;-85
2023/05/08 05:14:06;;;;;;;8.53;5.17;;;10.90;99.90;;;;;;4954260;28;20708;-85
2023/05/08 05:16:32;;;;;;;9.20;6.63;;;11.20;99.90;;;;;;4969822;28;20245;-85
2023/05/08 05:18:58;;;;;;;11.97;7.23;;;11.80;99.90;;;;;;4937913;28;20208;-84
2023/05/08 05:21:24;;;;;;;10.87;7.20;;;12.60;99.90;;;;;;4953755;28;20212;-85
2023/05/08 05:23:50;;;;;;;11.77;6.60;;;12.90;99.90;;;;;;4969476;28;20251;-86
2023/05/08 05:26:16;;;;;;;11.30;6.43;;;13.10;99.90;;;;;;4953901;28;20251;-85
2023/05/08 05:28:42;;;;;;;12.17;7.47;;;13.30;99.90;;;;;;4953427;28;20242;-85
2023/05/08 05:31:08;;;;;;;7.60;5.27;;;13.90;99.90;;;;;;4969421;28;20733;-85
2023/05/08 05:33:34;;;;;;;11.40;7.23;;;14.40;99.90;;;;;;4969774;28;20272;-85
2023/05/08 05:36:00;;;;;;;10.37;6.00;;;15.00;99.90;;;;;;4969391;28;20311;-85
2023/05/08 05:38:26;;;;;;;8.87;6.43;;;15.00;99.90;;;;;;4952848;28;20564;-86
2023/05/08 05:40:51;;;;;;;7.27;4.97;;;15.30;99.90;;;;;;4970259;28;20271;-86
2023/05/08 05:43:17;;;;;;;7.20;4.80;;;15.30;99.90;;;;;;4970415;28;20260;-86
2023/05/08 05:45:43;;;;;;;7.93;5.83;;;15.40;99.90;;;;;;4971035;28;20248;-85
2023/05/08 05:48:09;;;;;;;7.63;5.07;;;15.50;99.90;;;;;;4960326;28;20351;-85
2023/05/08 05:50:36;;;;;;;9.10;6.40;;;15.40;99.90;;;;;;4952732;28;20232;-86
2023/05/08 05:53:05;;;;;;;8.60;5.67;;;15.50;99.90;;;;;;4953731;28;20251;-85
2023/05/08 05:55:31;;;;;;;8.50;5.17;;;15.00;99.90;;;;;;4969161;28;20255;-85
2023/05/08 05:57:57;;;;;;;10.37;7.23;;;15.10;99.90;;;;;;4969182;28;20232;-86
2023/05/08 06:00:22;;;;;;;6.37;5.40;;;15.40;99.90;;;;;;4969828;28;20220;-86
2023/05/08 06:02:48;;;;;;;8.17;5.67;;;15.50;99.90;;;;;;4953658;28;20243;-87
2023/05/08 06:05:14;;;;;;;6.47;5.10;;;16.20;99.90;;;;;;4937708;28;20228;-87
2023/05/08 06:07:39;;;;;;;7.90;5.70;;;16.30;99.90;;;;;;4953202;28;20701;-86
2023/05/08 06:10:06;;;;;;;8.50;6.20;;;15.80;99.90;;;;;;4968906;28;20185;-87
2023/05/08 06:12:32;;;;;;;10.30;6.83;;;16.40;99.90;;;;;;4954185;28;20192;-88
2023/05/08 06:14:57;;;;;;;6.30;5.37;;;16.40;99.90;;;;;;4968872;28;20213;-86
2023/05/08 06:17:23;;;;;;;8.40;5.67;;;16.40;99.90;;;;;;4952429;28;20237;-86
2023/05/08 06:19:52;;;;;;;6.43;4.97;;;16.70;99.90;;;;;;4969110;28;20217;-86
2023/05/08 06:22:22;;;;;;;7.30;4.57;;;16.60;99.90;;;;;;4969112;28;20221;-85
2023/05/08 06:24:48;;;;;;;9.37;6.40;;;16.80;99.90;;;;;;4968975;28;20670;-86
2023/05/08 06:27:14;;;;;;;9.17;5.47;;;17.30;99.90;;;;;;4953247;28;20189;-85
2023/05/08 06:29:39;;;;;;;8.47;5.90;;;17.40;99.90;;;;;;4952347;28;20217;-84
2023/05/08 06:32:05;;;;;;;9.47;5.73;;;17.60;99.90;;;;;;4952149;28;20303;-84
2023/05/08 06:34:31;;;;;;;6.70;5.10;;;17.70;99.90;;;;;;4952725;28;20247;-84
2023/05/08 06:36:57;;;;;;;9.23;5.47;;;16.50;99.90;;;;;;4953069;28;20670;-85
2023/05/08 06:39:23;;;;;;;8.80;4.97;;;16.90;99.90;;;;;;4952455;28;20185;-82
2023/05/08 06:41:48;;;;;;;10.37;5.87;;;16.70;99.90;;;;;;4967272;28;20217;-84
2023/05/08 06:44:17;;;;;;;6.63;4.77;;;16.70;99.90;;;;;;4951327;28;20221;-84
2023/05/08 06:46:43;;;;;;;8.27;5.37;;;16.70;99.90;;;;;;4966868;28;20724;-83
2023/05/08 06:49:08;;;;;;;7.70;5.40;;;16.90;99.90;;;;;;4950035;28;20236;-84
2023/05/08 06:51:37;;;;;;;7.77;5.43;;;17.00;99.90;;;;;;4966936;28;20203;-83
2023/05/08 06:54:06;;;;;;;11.27;5.77;;;17.60;99.90;;;;;;4966637;28;20271;-83
2023/05/08 06:56:35;;;;;;;9.80;6.43;;;17.20;99.90;;;;;;4966226;28;20228;-83
2023/05/08 06:59:01;;;;;;;9.23;6.07;;;17.70;99.90;;;;;;4966420;28;20255;-82
2023/05/08 07:01:26;;;;;;;8.73;6.33;;;19.00;99.90;;;;;;4966735;28;20208;-82
2023/05/08 07:03:52;;;;;;;6.73;5.63;;;18.80;99.90;;;;;;4950869;28;20181;-82
2023/05/08 07:06:18;;;;;;;8.53;6.40;;;18.70;99.90;;;;;;4967322;28;20514;-82
2023/05/08 07:08:44;;;;;;;8.23;5.67;;;19.10;99.90;;;;;;4967033;28;20239;-82
2023/05/08 07:11:10;;;;;;;8.23;4.73;;;18.70;99.90;;;;;;4934867;28;20224;-82
2023/05/08 07:13:36;;;;;;;9.23;5.97;;;18.30;99.90;;;;;;4966461;28;20219;-83
2023/05/08 07:16:02;;;;;;;6.90;5.37;;;17.60;99.90;;;;;;4966602;28;20191;-82
2023/05/08 07:18:28;;;;;;;7.53;5.63;;;17.20;99.90;;;;;;4934953;28;20176;-82
2023/05/08 07:20:53;;;;;;;9.90;6.43;;;17.30;99.90;;;;;;4966766;28;20279;-84
2023/05/08 07:23:20;;;;;;;10.80;6.70;;;17.10;99.90;;;;;;4950204;28;20216;-83
2023/05/08 07:25:46;;;;;;;5.50;3.87;;;18.10;99.90;;;;;;4950562;28;20209;-83
2023/05/08 07:28:12;;;;;;;9.63;6.43;;;19.30;99.90;;;;;;4966601;28;20668;-83
2023/05/08 07:30:38;;;;;;;9.87;6.60;;;19.30;99.90;;;;;;4950860;28;20185;-82
2023/05/08 07:33:04;;;;;;;8.10;5.87;;;20.00;99.90;;;;;;4966470;28;20761;-83
2023/05/08 07:35:29;;;;;;;9.27;6.47;;;19.70;99.90;;;;;;4934477;28;20217;-85
2023/05/08 07:37:55;;;;;;;8.23;6.30;;;20.00;99.90;;;;;;4967738;28;20229;-84
2023/05/08 07:40:21;;;;;;;9.33;6.83;;;20.00;99.90;;;;;;4934832;28;20244;-84
2023/05/08 07:42:47;;;;;;;9.27;6.77;;;19.60;99.90;;;;;;4951056;28;20185;-84
2023/05/08 07:45:12;;;;;;;8.50;6.20;;;18.90;99.90;;;;;;4951142;28;20280;-84
2023/05/08 07:47:48;;;;;;;9.50;6.50;;;18.30;99.90;;;;;;4950454;28;20719;-84
2023/05/08 07:50:14;;;;;;;9.27;7.33;;;19.00;99.90;;;;;;4966331;28;20656;-85
2023/05/08 07:52:39;;;;;;;8.40;6.93;;;20.10;99.90;;;;;;4966688;28;20221;-84
2023/05/08 07:55:06;;;;;;;9.83;6.87;;;20.10;99.90;;;;;;4966534;28;20833;-84
2023/05/08 07:57:39;;;;;;;10.63;6.57;;;19.90;99.90;;;;;;4935188;28;20213;-84
2023/05/08 08:00:09;;;;;;;9.07;5.77;;;20.00;99.90;;;;;;4966518;28;20244;-84
2023/05/08 08:02:35;;;;;;;10.87;6.60;;;19.50;99.90;;;;;;4969389;28;20295;-84
2023/05/08 08:05:01;;;;;;;9.87;6.93;;;20.30;99.90;;;;;;4953500;28;20310;-84
2023/05/08 08:07:26;;;;;;;11.50;6.93;;;21.30;99.90;;;;;;4970162;28;20217;-85
2023/05/08 08:09:52;;;;;;;9.10;6.90;;;20.20;99.90;;;;;;4969379;28;20239;-84
2023/05/08 08:12:19;;;;;;;9.20;6.20;;;19.90;99.90;;;;;;4954806;28;20272;-83
2023/05/08 08:14:45;;;;;;;8.20;6.03;;;20.30;99.90;;;;;;4971521;28;20276;-84
2023/05/08 08:17:11;;;;;;;10.00;6.67;;;20.20;99.90;;;;;;4938083;28;20706;-84
2023/05/08 08:19:36;;;;;;;9.57;6.67;;;19.70;99.90;;;;;;4954078;28;20224;-84
2023/05/08 08:22:02;;;;;;;10.37;7.10;;;19.10;99.90;;;;;;4969883;28;20185;-84
2023/05/08 08:24:29;;;;;;;15.60;6.20;;;18.20;99.90;;;;;;4954320;28;20649;-84
2023/05/08 08:26:55;;;;;;;9.93;6.50;;;17.70;99.90;;;;;;4971243;28;20231;-84
2023/05/08 08:29:20;;;;;;;9.10;6.50;;;17.70;99.90;;;;;;4969729;28;20228;-84
2023/05/08 08:31:49;;;;;;;12.60;6.00;;;18.30;99.90;;;;;;4953736;28;20762;-83
2023/05/08 08:34:14;;;;;;;9.93;7.77;;;19.00;99.90;;;;;;4953762;28;20255;-85
2023/05/08 08:36:40;;;;;;;8.73;6.60;;;20.00;99.90;;;;;;4969994;28;20772;-84
2023/05/08 08:39:06;;;;;;;10.40;7.00;;;19.90;99.90;;;;;;4953504;28;20697;-84
2023/05/08 08:41:32;;;;;;;8.30;6.03;;;19.90;99.90;;;;;;4953148;28;20224;-84
2023/05/08 08:43:58;;;;;;;9.20;6.60;;;19.80;99.90;;;;;;4969516;28;20222;-84
2023/05/08 08:46:25;;;;;;;10.07;6.20;;;19.70;99.90;;;;;;4969411;28;20220;-84
2023/05/08 08:48:54;;;;;;;10.00;6.60;;;20.20;99.90;;;;;;4969200;28;20211;-83
2023/05/08 08:51:44;;;;;;;11.23;7.97;;;20.50;99.90;;;;;;4970085;28;20248;-84
2023/05/08 08:54:19;;;;;;;11.50;7.00;;;21.60;99.90;;;;;;4969260;28;20618;-84
2023/05/08 08:56:46;;;;;;;9.80;6.37;;;21.60;99.90;;;;;;4968996;28;20231;-84
2023/05/08 08:59:12;;;;;;;9.73;5.93;;;21.40;99.90;;;;;;4970441;28;20279;-86
2023/05/08 09:01:40;;;;;;;9.87;6.87;;;20.90;99.90;;;;;;4970197;28;20212;-84
2023/05/08 09:04:06;;;;;;;11.70;7.53;;;20.40;99.90;;;;;;4969089;28;20247;-83
2023/05/08 09:06:36;;;;;;;9.43;6.23;;;20.60;99.90;;;;;;4953402;28;20224;-84
2023/05/08 09:09:03;;;;;;;9.80;7.27;;;20.80;99.90;;;;;;4953050;28;20224;-83
2023/05/08 09:11:29;;;;;;;13.10;7.53;;;21.60;99.90;;;;;;4968940;28;20217;-85
2023/05/08 09:13:56;;;;;;;9.68;7.38;;;21.50;99.90;;;;;;4952799;28;20223;-84
2023/05/08 09:16:22;;;;;;;8.60;7.10;;;21.40;99.90;;;;;;4952727;28;20323;-84
2023/05/08 09:18:48;;;;;;;9.70;6.78;;;21.50;99.90;;;;;;4952547;28;20212;-83
2023/05/08 09:21:14;;;;;;;11.15;7.78;;;21.40;99.90;;;;;;4937634;28;20216;-85
2023/05/08 09:24:00;;;;;;;12.27;6.88;;;22.30;99.90;;;;;;4968879;28;20799;-85
2023/05/08 09:26:33;;;;;;;10.20;7.53;;;22.40;99.90;;;;;;4968801;28;20228;-83
2023/05/08 09:29:16;;;;;;;9.93;6.78;;;22.20;99.90;;;;;;4969118;28;20220;-83
2023/05/08 09:31:46;;;;;;;10.90;7.15;;;22.10;99.90;;;;;;4969171;28;20224;-83
2023/05/08 09:34:29;;;;;;;14.63;8.55;;;21.80;99.90;;;;;;4967991;28;20220;-83
2023/05/08 09:37:10;;;;;;;12.13;7.47;;;21.50;99.90;;;;;;4967758;28;20639;-83
2023/05/08 09:39:35;;;;;;;12.75;8.23;;;22.10;99.90;;;;;;4969839;28;20173;-83
2023/05/08 09:42:03;;;;;;;12.23;8.45;;;22.00;99.90;;;;;;4967942;28;20753;-83
2023/05/08 09:44:48;;;;;;;13.48;8.93;;;21.40;99.90;;;;;;4969025;28;20209;-83
2023/05/08 09:47:17;;;;;;;11.38;8.48;;;22.00;99.90;;;;;;4969119;28;20303;-83
2023/05/08 09:50:05;;;;;;;13.35;8.50;;;22.40;99.90;;;;;;4967641;28;20244;-83
2023/05/08 09:52:32;;;;;;;12.65;8.18;;;22.50;99.90;;;;;;4967741;28;20224;-83
2023/05/08 09:55:03;;;;;;;13.27;8.73;;;22.60;99.90;;;;;;4951758;28;20185;-83
2023/05/08 09:57:30;;;;;;;14.30;9.15;;;22.90;99.90;;;;;;4968252;28;20208;-83
2023/05/08 10:00:14;;;;;;;11.95;7.88;;;23.20;99.90;;;;;;4967514;28;20213;-84
2023/05/08 10:02:41;;;;;;;14.15;9.65;;;22.70;99.90;;;;;;4967508;28;20220;-84
2023/05/08 10:05:35;;;;;;;13.18;8.38;;;22.10;99.90;;;;;;4967621;28;20303;-84
2023/05/08 10:08:21;;;;;;;11.88;8.02;;;21.80;99.90;;;;;;4968146;28;20235;-84
2023/05/08 10:10:47;;;;;;;14.95;9.60;;;21.50;99.90;;;;;;4968813;28;20221;-85
2023/05/08 10:13:13;;;;;;;12.45;8.55;;;22.40;99.90;;;;;;4967751;28;20243;-85
2023/05/08 10:15:41;;;;;;;14.98;9.32;;;21.90;99.90;;;;;;4968378;28;20631;-84
2023/05/08 10:18:09;;;;;;;13.73;8.20;;;21.40;99.90;;;;;;4965579;28;20236;-84
2023/05/08 10:20:39;;;;;;;10.82;8.00;;;21.10;99.90;;;;;;4924649;28;20212;-84
2023/05/08 10:23:13;;;;;;;13.15;8.63;;;21.50;99.90;;;;;;4966903;28;20300;-84
2023/05/08 10:25:47;;;;;;;16.58;10.05;;;21.40;99.90;;;;;;4966636;28;20212;-84
2023/05/08 10:28:35;;;;;;;13.77;9.10;;;21.50;99.90;;;;;;4966610;28;20670;-85
2023/05/08 10:31:04;;;;;;;13.95;8.70;;;21.40;99.90;;;;;;4967952;28;20510;-83
2023/05/08 10:33:31;;;;;;;13.35;8.85;;;21.80;99.90;;;;;;4967298;28;20181;-84
2023/05/08 10:35:58;;;;;;;13.63;8.77;;;22.30;99.90;;;;;;4950246;28;20220;-84
2023/05/08 10:38:24;;;;;;;14.95;9.73;;;21.70;99.90;;;;;;4965889;28;20291;-84
2023/05/08 10:40:56;;;;;;;14.50;9.55;;;21.90;99.90;;;;;;4965858;28;20232;-84
2023/05/08 10:43:27;;;;;;;15.35;9.48;;;22.00;99.90;;;;;;4950570;28;20252;-84
2023/05/08 10:45:55;;;;;;;15.00;9.93;;;22.30;99.90;;;;;;4965755;28;20169;-83
2023/05/08 10:48:27;;;;;;;15.63;10.70;;;22.70;99.90;;;;;;4967916;28;20192;-83
2023/05/08 10:51:13;;;;;;;15.95;9.63;;;23.00;99.90;;;;;;4965589;28;20259;-83
2023/05/08 10:53:49;;;;;;;17.55;9.85;;;22.70;99.90;;;;;;4965517;28;20228;-84
2023/05/08 10:56:15;;;;;;;13.55;9.23;;;22.10;99.90;;;;;;4966226;28;20222;-84
2023/05/08 10:58:41;;;;;;;16.83;10.45;;;22.70;99.90;;;;;;4949999;28;20770;-84
2023/05/08 11:01:07;;;;;;;14.15;9.55;;;24.00;99.90;;;;;;4966463;28;20185;-85
2023/05/08 11:03:39;;;;;;;14.23;9.48;;;23.90;99.90;;;;;;4965245;28;20187;-84
2023/05/08 11:06:05;;;;;;;17.73;10.45;;;22.30;99.90;;;;;;4966409;28;20621;-83
2023/05/08 11:08:31;;;;;;;14.13;10.00;;;22.50;99.90;;;;;;4965975;28;20300;-84
2023/05/08 11:11:10;;;;;;;14.40;10.35;;;22.80;99.90;;;;;;4966070;28;20224;-83
2023/05/08 11:13:41;;;;;;;14.77;8.65;;;23.30;99.90;;;;;;4966857;28;20562;-84
2023/05/08 11:16:09;;;;;;;15.13;9.63;;;22.60;99.90;;;;;;4967077;28;20169;-84
2023/05/08 11:18:35;;;;;;;11.82;8.35;;;22.60;99.90;;;;;;4950650;28;20357;-84
2023/05/08 11:21:13;;;;;;;15.00;9.43;;;21.80;99.90;;;;;;4950049;28;20223;-84
2023/05/08 11:23:39;;;;;;;16.83;9.00;;;21.50;99.90;;;;;;4966592;28;20213;-85
2023/05/08 11:26:12;;;;;;;16.40;8.32;;;21.70;99.90;;;;;;4950262;28;20224;-86
2023/05/08 11:28:40;;;;;;;14.90;8.95;;;21.40;99.90;;;;;;4966520;28;20550;-85
2023/05/08 11:31:07;;;;;;;16.80;10.30;;;20.70;99.90;;;;;;4966521;28;20173;-85
2023/05/08 11:33:39;;;;;;;14.50;10.20;;;20.50;99.90;;;;;;4967433;28;20184;-85
2023/05/08 11:36:23;;;;;;;15.88;9.07;;;21.00;99.90;;;;;;4968333;28;20271;-85
2023/05/08 11:39:06;;;;;;;13.55;8.40;;;22.00;99.90;;;;;;4970031;28;20230;-84
2023/05/08 11:41:32;;;;;;;14.57;9.85;;;22.40;99.90;;;;;;4971001;28;20216;-84
2023/05/08 11:44:12;;;;;;;16.23;9.18;;;22.60;99.90;;;;;;4970081;28;20689;-84
2023/05/08 11:46:55;;;;;;;14.38;9.18;;;22.30;99.90;;;;;;4970144;28;20689;-85
2023/05/08 11:49:22;;;;;;;15.27;9.57;;;22.20;99.90;;;;;;4954255;28;20220;-84
2023/05/08 11:51:53;;;;;;;14.90;10.02;;;22.70;99.90;;;;;;4954039;28;20260;-83
2023/05/08 11:54:21;;;;;;;14.80;9.73;;;23.00;99.90;;;;;;4971021;28;20256;-85
2023/05/08 11:56:49;;;;;;;16.83;8.32;;;22.40;99.90;;;;;;4970151;28;20237;-84
2023/05/08 11:59:15;;;;;;;17.63;10.02;;;22.40;99.90;;;;;;4954514;28;20240;-85
2023/05/08 12:01:41;;;;;;;14.93;10.18;;;22.90;99.90;;;;;;4970103;28;20271;-85
2023/05/08 12:04:11;;;;;;;17.35;10.38;;;22.50;99.90;;;;;;4971616;28;20654;-86
2023/05/08 12:06:39;;;;;;;19.30;11.25;;;21.70;99.90;;;;;;4971182;28;20267;-86
2023/05/08 12:09:16;;;;;;;15.82;10.70;;;21.80;99.90;;;;;;4970699;28;20244;-85
2023/05/08 12:11:44;;;;;;;15.15;10.32;;;21.70;99.90;;;;;;4970711;28;20291;-85
2023/05/08 12:14:11;;;;;;;17.97;10.73;;;21.60;99.90;;;;;;4970647;28;20320;-85
2023/05/08 12:16:38;;;;;;;16.80;11.23;;;21.70;99.90;;;;;;4970859;28;20239;-84
2023/05/08 12:19:09;;;;;;;16.05;11.05;;;21.30;99.90;;;;;;4969740;28;20700;-84
2023/05/08 12:21:35;;;;;;;19.43;11.13;;;21.20;99.90;;;;;;4970027;28;20177;-84
2023/05/08 12:24:10;;;;;;;17.40;11.43;;;21.30;99.90;;;;;;4971010;28;20235;-84
2023/05/08 12:26:37;;;;;;;16.38;10.82;;;21.60;99.90;;;;;;4969750;28;20697;-84
2023/05/08 12:29:07;;;;;;;19.57;11.47;;;21.80;99.90;;;;;;4969778;28;20724;-84
2023/05/08 12:31:36;;;;;;;17.17;10.67;;;22.00;99.90;;;;;;4970865;28;20232;-83
2023/05/08 12:34:05;;;;;;;16.73;10.95;;;21.80;99.90;;;;;;4954284;28;20669;-85
2023/05/08 12:36:35;;;;;;;19.85;10.68;;;22.30;99.90;;;;;;4954229;28;20217;-84
2023/05/08 12:39:15;;;;;;;23.38;13.00;;;22.80;99.90;;;;;;4970600;28;20700;-83
2023/05/08 12:41:51;;;;;;;22.52;14.13;;;22.20;99.90;;;;;;4968887;28;20693;-83
2023/05/08 12:44:24;;;;;;;21.30;11.77;;;22.30;99.90;;;;;;4969589;28;20220;-84
2023/05/08 12:46:52;;;;;;;20.10;13.25;;;21.80;99.90;;;;;;4968661;28;20647;-86
2023/05/08 12:49:25;;;;;;;21.53;14.10;;;20.70;99.90;;;;;;4969626;28;20220;-83
2023/05/08 12:51:51;;;;;;;23.10;13.80;;;20.00;99.90;;;;;;4968831;28;20324;-85
2023/05/08 12:54:17;;;;;;;22.37;12.83;;;19.60;99.90;;;;;;4969795;28;20193;-84
2023/05/08 12:56:45;;;;;;;21.77;13.83;;;19.40;99.90;;;;;;4952915;28;20282;-84